sensor_id;sensor_type;location;lat;lon;timestamp;temperature;humidity
6666;DHT22;3369;49.906;8.598;2023-08-17T00:00:15;18.40;99.90
6666;DHT22;3369;49.906;8.598;2023-08-17T00:02:43;18.40;99.90
6666;DHT22;3369;49.906;8.598;2023-08-17T00:05:09;18.40;99.90
6666;DHT22;3369;49.906;8.598;2023-08-17T00:07:35;18.40;99.90
6666;DHT22;3369;49.906;8.598;2023-08-17T00:10:01;18.40;99.90
6666;DHT22;3369;49.906;8.598;2023-08-17T00:12:27;18.40;99.90
6666;DHT22;3369;49.906;8.598;2023-08-17T00:14:53;18.40;99.90
6666;DHT22;3369;49.906;8.598;2023-08-17T00:17:19;18.30;99.90
6666;DHT22;3369;49.906;8.598;2023-08-17T00:19:45;18.30;99.90
6666;DHT22;3369;49.906;8.598;2023-08-17T00:22:10;18.30;99.90
6666;DHT22;3369;49.906;8.598;2023-08-17T00:24:36;18.30;99.90
6666;DHT22;3369;49.906;8.598;2023-08-17T00:27:02;18.30;99.90
6666;DHT22;3369;49.906;8.598;2023-08-17T00:29:29;18.30;99.90
6666;DHT22;3369;49.906;8.598;2023-08-17T00:31:55;18.30;99.90
6666;DHT22;3369;49.906;8.598;2023-08-17T00:34:20;18.30;99.90
6666;DHT22;3369;49.906;8.598;2023-08-17T00:36:46;18.30;99.90
6666;DHT22;3369;49.906;8.598;2023-08-17T00:39:11;18.30;99.90
6666;DHT22;3369;49.906;8.598;2023-08-17T00:41:37;18.20;99.90
6666;DHT22;3369;49.906;8.598;2023-08-17T00:44:03;18.20;99.90
6666;DHT22;3369;49.906;8.598;2023-08-17T00:46:29;18.20;99.90
6666;DHT22;3369;49.906;8.598;2023-08-17T00:48:56;18.20;99.90
6666;DHT22;3369;49.906;8.598;2023-08-17T00:51:23;18.20;99.90
6666;DHT22;3369;49.906;8.598;2023-08-17T00:53:50;18.20;99.90
6666;DHT22;3369;49.906;8.598;2023-08-17T00:56:16;18.20;99.90
6666;DHT22;3369;49.906;8.598;2023-08-17T00:58:42;18.20;99.90
6666;DHT22;3369;49.906;8.598;2023-08-17T01:01:08;18.10;99.90
6666;DHT22;3369;49.906;8.598;2023-08-17T01:03:34;18.10;99.90
6666;DHT22;3369;49.906;8.598;2023-08-17T01:05:59;18.10;99.90
6666;DHT22;3369;49.906;8.598;2023-08-17T01:08:28;18.10;99.90
6666;DHT22;3369;49.906;8.598;2023-08-17T01:13:46;18.10;99.90
6666;DHT22;3369;49.906;8.598;2023-08-17T01:16:20;18.10;99.90
6666;DHT22;3369;49.906;8.598;2023-08-17T01:18:48;18.00;99.90
6666;DHT22;3369;49.906;8.598;2023-08-17T01:21:17;18.00;99.90
6666;DHT22;3369;49.906;8.598;2023-08-17T01:23:45;18.00;99.90
6666;DHT22;3369;49.906;8.598;2023-08-17T01:26:11;18.00;99.90
6666;DHT22;3369;49.906;8.598;2023-08-17T01:28:42;18.00;99.90
6666;DHT22;3369;49.906;8.598;2023-08-17T01:32:00;18.00;99.90
6666;DHT22;3369;49.906;8.598;2023-08-17T01:34:10;18.00;99.90
6666;DHT22;3369;49.906;8.598;2023-08-17T01:36:46;18.00;99.90
6666;DHT22;3369;49.906;8.598;2023-08-17T01:39:16;18.00;99.90
6666;DHT22;3369;49.906;8.598;2023-08-17T01:41:43;18.00;99.90
6666;DHT22;3369;49.906;8.598;2023-08-17T01:44:10;18.00;99.90
6666;DHT22;3369;49.906;8.598;2023-08-17T01:46:36;18.00;99.90
6666;DHT22;3369;49.906;8.598;2023-08-17T01:49:02;17.90;99.90
6666;DHT22;3369;49.906;8.598;2023-08-17T01:51:28;17.90;99.90
6666;DHT22;3369;49.906;8.598;2023-08-17T01:53:53;18.00;99.90
6666;DHT22;3369;49.906;8.598;2023-08-17T01:56:19;17.90;99.90
6666;DHT22;3369;49.906;8.598;2023-08-17T01:58:44;17.90;99.90
6666;DHT22;3369;49.906;8.598;2023-08-17T02:01:10;17.90;99.90
6666;DHT22;3369;49.906;8.598;2023-08-17T02:03:36;17.90;99.90
6666;DHT22;3369;49.906;8.598;2023-08-17T02:06:01;17.90;99.90
6666;DHT22;3369;49.906;8.598;2023-08-17T02:08:27;17.90;99.90
6666;DHT22;3369;49.906;8.598;2023-08-17T02:10:53;17.90;99.90
6666;DHT22;3369;49.906;8.598;2023-08-17T02:13:18;17.80;99.90
6666;DHT22;3369;49.906;8.598;2023-08-17T02:15:46;17.80;99.90
6666;DHT22;3369;49.906;8.598;2023-08-17T02:18:11;17.80;99.90
6666;DHT22;3369;49.906;8.598;2023-08-17T02:20:37;17.80;99.90
6666;DHT22;3369;49.906;8.598;2023-08-17T02:23:02;17.80;99.90
6666;DHT22;3369;49.906;8.598;2023-08-17T02:25:28;17.80;99.90
6666;DHT22;3369;49.906;8.598;2023-08-17T02:28:03;17.80;99.90
6666;DHT22;3369;49.906;8.598;2023-08-17T02:30:29;17.80;99.90
6666;DHT22;3369;49.906;8.598;2023-08-17T02:32:55;17.80;99.90
6666;DHT22;3369;49.906;8.598;2023-08-17T02:35:20;17.70;99.90
6666;DHT22;3369;49.906;8.598;2023-08-17T02:37:46;17.70;99.90
6666;DHT22;3369;49.906;8.598;2023-08-17T02:40:12;17.70;99.90
6666;DHT22;3369;49.906;8.598;2023-08-17T02:42:37;17.70;99.90
6666;DHT22;3369;49.906;8.598;2023-08-17T02:45:08;17.70;99.90
6666;DHT22;3369;49.906;8.598;2023-08-17T02:47:34;17.70;99.90
6666;DHT22;3369;49.906;8.598;2023-08-17T02:49:59;17.70;99.90
6666;DHT22;3369;49.906;8.598;2023-08-17T02:52:25;17.70;99.90
6666;DHT22;3369;49.906;8.598;2023-08-17T02:54:50;17.70;99.90
6666;DHT22;3369;49.906;8.598;2023-08-17T02:57:16;17.70;99.90
6666;DHT22;3369;49.906;8.598;2023-08-17T02:59:43;17.80;99.90
6666;DHT22;3369;49.906;8.598;2023-08-17T03:02:08;17.80;99.90
6666;DHT22;3369;49.906;8.598;2023-08-17T03:04:34;17.80;99.90
6666;DHT22;3369;49.906;8.598;2023-08-17T03:06:59;17.80;99.90
6666;DHT22;3369;49.906;8.598;2023-08-17T03:09:25;17.90;99.90
6666;DHT22;3369;49.906;8.598;2023-08-17T03:11:50;17.90;99.90
6666;DHT22;3369;49.906;8.598;2023-08-17T03:14:16;17.90;99.90
6666;DHT22;3369;49.906;8.598;2023-08-17T03:16:42;17.90;99.90
6666;DHT22;3369;49.906;8.598;2023-08-17T03:19:07;17.90;99.90
6666;DHT22;3369;49.906;8.598;2023-08-17T03:21:36;18.00;99.90
6666;DHT22;3369;49.906;8.598;2023-08-17T03:24:01;17.90;99.90
6666;DHT22;3369;49.906;8.598;2023-08-17T03:26:27;17.90;99.90
6666;DHT22;3369;49.906;8.598;2023-08-17T03:28:53;17.90;99.90
6666;DHT22;3369;49.906;8.598;2023-08-17T03:31:20;18.00;99.90
6666;DHT22;3369;49.906;8.598;2023-08-17T03:33:46;18.00;99.90
6666;DHT22;3369;49.906;8.598;2023-08-17T03:36:12;18.00;99.90
6666;DHT22;3369;49.906;8.598;2023-08-17T03:38:38;18.00;99.90
6666;DHT22;3369;49.906;8.598;2023-08-17T03:41:07;17.90;99.90
6666;DHT22;3369;49.906;8.598;2023-08-17T03:43:33;18.00;99.90
6666;DHT22;3369;49.906;8.598;2023-08-17T03:45:59;17.90;99.90
6666;DHT22;3369;49.906;8.598;2023-08-17T03:48:24;17.90;99.90
6666;DHT22;3369;49.906;8.598;2023-08-17T03:50:54;17.90;99.90
6666;DHT22;3369;49.906;8.598;2023-08-17T03:53:20;17.90;99.90
6666;DHT22;3369;49.906;8.598;2023-08-17T03:55:50;17.90;99.90
6666;DHT22;3369;49.906;8.598;2023-08-17T03:58:17;17.90;99.90
6666;DHT22;3369;49.906;8.598;2023-08-17T04:00:49;17.80;99.90
6666;DHT22;3369;49.906;8.598;2023-08-17T04:03:15;17.80;99.90
6666;DHT22;3369;49.906;8.598;2023-08-17T04:05:41;17.80;99.90
6666;DHT22;3369;49.906;8.598;2023-08-17T04:08:06;17.80;99.90
6666;DHT22;3369;49.906;8.598;2023-08-17T04:10:32;17.80;99.90
6666;DHT22;3369;49.906;8.598;2023-08-17T04:12:58;17.80;99.90
6666;DHT22;3369;49.906;8.598;2023-08-17T04:15:23;17.80;99.90
6666;DHT22;3369;49.906;8.598;2023-08-17T04:17:49;17.80;99.90
6666;DHT22;3369;49.906;8.598;2023-08-17T04:20:14;17.80;99.90
6666;DHT22;3369;49.906;8.598;2023-08-17T04:22:40;17.80;99.90
6666;DHT22;3369;49.906;8.598;2023-08-17T04:25:06;17.90;99.90
6666;DHT22;3369;49.906;8.598;2023-08-17T04:27:33;17.80;99.90
6666;DHT22;3369;49.906;8.598;2023-08-17T04:29:59;17.90;99.90
6666;DHT22;3369;49.906;8.598;2023-08-17T04:32:25;17.80;99.90
6666;DHT22;3369;49.906;8.598;2023-08-17T04:34:51;17.90;99.90
6666;DHT22;3369;49.906;8.598;2023-08-17T04:37:16;17.90;99.90
6666;DHT22;3369;49.906;8.598;2023-08-17T04:39:42;17.90;99.90
6666;DHT22;3369;49.906;8.598;2023-08-17T04:42:09;17.80;99.90
6666;DHT22;3369;49.906;8.598;2023-08-17T04:44:35;17.90;99.90
6666;DHT22;3369;49.906;8.598;2023-08-17T04:47:00;17.90;99.90
6666;DHT22;3369;49.906;8.598;2023-08-17T04:49:26;17.90;99.90
6666;DHT22;3369;49.906;8.598;2023-08-17T04:51:52;17.90;99.90
6666;DHT22;3369;49.906;8.598;2023-08-17T04:54:18;17.90;99.90
6666;DHT22;3369;49.906;8.598;2023-08-17T04:56:44;17.90;99.90
6666;DHT22;3369;49.906;8.598;2023-08-17T04:59:10;17.90;99.90
6666;DHT22;3369;49.906;8.598;2023-08-17T05:01:35;17.90;99.90
6666;DHT22;3369;49.906;8.598;2023-08-17T05:04:02;17.90;99.90
6666;DHT22;3369;49.906;8.598;2023-08-17T05:06:29;17.90;99.90
6666;DHT22;3369;49.906;8.598;2023-08-17T05:08:54;17.90;99.90
6666;DHT22;3369;49.906;8.598;2023-08-17T05:11:20;18.00;99.90
6666;DHT22;3369;49.906;8.598;2023-08-17T05:13:46;17.90;99.90
6666;DHT22;3369;49.906;8.598;2023-08-17T05:16:11;18.00;99.90
6666;DHT22;3369;49.906;8.598;2023-08-17T05:18:37;17.90;99.90
6666;DHT22;3369;49.906;8.598;2023-08-17T05:21:02;18.00;99.90
6666;DHT22;3369;49.906;8.598;2023-08-17T05:23:28;17.90;99.90
6666;DHT22;3369;49.906;8.598;2023-08-17T05:25:54;18.00;99.90
6666;DHT22;3369;49.906;8.598;2023-08-17T05:28:20;18.00;99.90
6666;DHT22;3369;49.906;8.598;2023-08-17T05:30:46;18.00;99.90
6666;DHT22;3369;49.906;8.598;2023-08-17T05:33:12;18.00;99.90
6666;DHT22;3369;49.906;8.598;2023-08-17T05:35:38;18.00;99.90
6666;DHT22;3369;49.906;8.598;2023-08-17T05:38:03;18.00;99.90
6666;DHT22;3369;49.906;8.598;2023-08-17T05:40:30;18.00;99.90
6666;DHT22;3369;49.906;8.598;2023-08-17T05:42:56;18.10;99.90
6666;DHT22;3369;49.906;8.598;2023-08-17T05:45:21;18.10;99.90
6666;DHT22;3369;49.906;8.598;2023-08-17T05:47:47;18.10;99.90
6666;DHT22;3369;49.906;8.598;2023-08-17T05:50:13;18.20;99.90
6666;DHT22;3369;49.906;8.598;2023-08-17T05:52:40;18.20;99.90
6666;DHT22;3369;49.906;8.598;2023-08-17T05:55:05;18.20;99.90
6666;DHT22;3369;49.906;8.598;2023-08-17T05:57:31;18.20;99.90
6666;DHT22;3369;49.906;8.598;2023-08-17T05:59:56;18.20;99.90
6666;DHT22;3369;49.906;8.598;2023-08-17T06:02:22;18.20;99.90
6666;DHT22;3369;49.906;8.598;2023-08-17T06:04:48;18.20;99.90
6666;DHT22;3369;49.906;8.598;2023-08-17T06:07:13;18.20;99.90
6666;DHT22;3369;49.906;8.598;2023-08-17T06:09:39;18.20;99.90
6666;DHT22;3369;49.906;8.598;2023-08-17T06:12:05;18.30;99.90
6666;DHT22;3369;49.906;8.598;2023-08-17T06:14:32;18.30;99.90
6666;DHT22;3369;49.906;8.598;2023-08-17T06:16:58;18.40;99.90
6666;DHT22;3369;49.906;8.598;2023-08-17T06:19:24;18.50;99.90
6666;DHT22;3369;49.906;8.598;2023-08-17T06:21:49;18.50;99.90
6666;DHT22;3369;49.906;8.598;2023-08-17T06:24:15;18.60;99.90
6666;DHT22;3369;49.906;8.598;2023-08-17T06:26:40;18.60;99.90
6666;DHT22;3369;49.906;8.598;2023-08-17T06:29:07;18.60;99.90
6666;DHT22;3369;49.906;8.598;2023-08-17T06:31:32;18.70;99.90
6666;DHT22;3369;49.906;8.598;2023-08-17T06:33:58;18.70;99.90
6666;DHT22;3369;49.906;8.598;2023-08-17T06:36:23;18.70;99.90
6666;DHT22;3369;49.906;8.598;2023-08-17T06:38:49;18.80;99.90
6666;DHT22;3369;49.906;8.598;2023-08-17T06:41:16;18.80;99.90
6666;DHT22;3369;49.906;8.598;2023-08-17T06:43:41;18.80;99.90
6666;DHT22;3369;49.906;8.598;2023-08-17T06:46:07;18.90;99.90
6666;DHT22;3369;49.906;8.598;2023-08-17T06:48:32;18.90;99.90
6666;DHT22;3369;49.906;8.598;2023-08-17T06:50:58;18.90;99.90
6666;DHT22;3369;49.906;8.598;2023-08-17T06:53:24;19.00;99.90
6666;DHT22;3369;49.906;8.598;2023-08-17T06:55:49;19.00;99.90
6666;DHT22;3369;49.906;8.598;2023-08-17T06:58:15;19.00;99.90
6666;DHT22;3369;49.906;8.598;2023-08-17T07:00:41;19.10;99.90
6666;DHT22;3369;49.906;8.598;2023-08-17T07:03:07;19.10;99.90
6666;DHT22;3369;49.906;8.598;2023-08-17T07:05:40;19.10;99.90
6666;DHT22;3369;49.906;8.598;2023-08-17T07:08:06;19.10;99.90
6666;DHT22;3369;49.906;8.598;2023-08-17T07:10:32;19.20;99.90
6666;DHT22;3369;49.906;8.598;2023-08-17T07:12:58;19.20;99.90
6666;DHT22;3369;49.906;8.598;2023-08-17T07:15:23;19.30;99.90
6666;DHT22;3369;49.906;8.598;2023-08-17T07:17:49;19.30;99.90
6666;DHT22;3369;49.906;8.598;2023-08-17T07:20:15;19.30;99.90
6666;DHT22;3369;49.906;8.598;2023-08-17T07:22:40;19.40;99.90
6666;DHT22;3369;49.906;8.598;2023-08-17T07:25:06;19.40;99.90
6666;DHT22;3369;49.906;8.598;2023-08-17T07:27:34;19.40;99.90
6666;DHT22;3369;49.906;8.598;2023-08-17T07:29:59;19.50;99.90
6666;DHT22;3369;49.906;8.598;2023-08-17T07:32:26;19.50;99.90
6666;DHT22;3369;49.906;8.598;2023-08-17T07:34:52;19.50;99.90
6666;DHT22;3369;49.906;8.598;2023-08-17T07:37:18;19.50;99.90
6666;DHT22;3369;49.906;8.598;2023-08-17T07:39:44;19.50;99.90
6666;DHT22;3369;49.906;8.598;2023-08-17T07:42:09;19.50;99.90
6666;DHT22;3369;49.906;8.598;2023-08-17T07:44:35;19.50;99.90
6666;DHT22;3369;49.906;8.598;2023-08-17T07:47:00;19.50;99.90
6666;DHT22;3369;49.906;8.598;2023-08-17T07:49:28;19.60;99.90
6666;DHT22;3369;49.906;8.598;2023-08-17T07:51:54;19.60;99.90
6666;DHT22;3369;49.906;8.598;2023-08-17T07:54:19;19.60;99.90
6666;DHT22;3369;49.906;8.598;2023-08-17T07:56:45;19.70;99.90
6666;DHT22;3369;49.906;8.598;2023-08-17T07:59:10;19.70;99.90
6666;DHT22;3369;49.906;8.598;2023-08-17T08:01:36;19.70;99.90
6666;DHT22;3369;49.906;8.598;2023-08-17T08:04:02;19.80;99.90
6666;DHT22;3369;49.906;8.598;2023-08-17T08:06:27;19.80;99.90
6666;DHT22;3369;49.906;8.598;2023-08-17T08:08:53;19.80;99.90
6666;DHT22;3369;49.906;8.598;2023-08-17T08:11:20;19.90;99.90
6666;DHT22;3369;49.906;8.598;2023-08-17T08:13:46;19.90;99.90
6666;DHT22;3369;49.906;8.598;2023-08-17T08:16:12;19.90;99.90
6666;DHT22;3369;49.906;8.598;2023-08-17T08:18:37;20.00;99.90
6666;DHT22;3369;49.906;8.598;2023-08-17T08:21:03;19.90;99.90
6666;DHT22;3369;49.906;8.598;2023-08-17T08:23:28;20.00;99.90
6666;DHT22;3369;49.906;8.598;2023-08-17T08:25:55;20.00;99.90
6666;DHT22;3369;49.906;8.598;2023-08-17T08:28:20;20.10;99.90
6666;DHT22;3369;49.906;8.598;2023-08-17T08:30:46;20.10;99.90
6666;DHT22;3369;49.906;8.598;2023-08-17T08:33:11;20.10;99.90
6666;DHT22;3369;49.906;8.598;2023-08-17T08:35:38;20.10;99.90
6666;DHT22;3369;49.906;8.598;2023-08-17T08:38:04;20.10;99.90
6666;DHT22;3369;49.906;8.598;2023-08-17T08:40:30;20.10;99.90
6666;DHT22;3369;49.906;8.598;2023-08-17T08:42:59;20.20;99.90
6666;DHT22;3369;49.906;8.598;2023-08-17T08:45:25;20.20;99.90
6666;DHT22;3369;49.906;8.598;2023-08-17T08:47:53;20.20;99.90
6666;DHT22;3369;49.906;8.598;2023-08-17T08:50:20;20.30;99.90
6666;DHT22;3369;49.906;8.598;2023-08-17T08:53:14;20.30;99.90
6666;DHT22;3369;49.906;8.598;2023-08-17T08:55:47;20.40;99.90
6666;DHT22;3369;49.906;8.598;2023-08-17T08:58:15;20.40;99.90
6666;DHT22;3369;49.906;8.598;2023-08-17T09:00:41;20.40;99.90
6666;DHT22;3369;49.906;8.598;2023-08-17T09:03:07;20.50;99.90
6666;DHT22;3369;49.906;8.598;2023-08-17T09:05:35;20.50;99.90
6666;DHT22;3369;49.906;8.598;2023-08-17T09:08:02;20.50;99.90
6666;DHT22;3369;49.906;8.598;2023-08-17T09:10:28;20.50;99.90
6666;DHT22;3369;49.906;8.598;2023-08-17T09:12:53;20.50;99.90
6666;DHT22;3369;49.906;8.598;2023-08-17T09:15:19;20.50;99.90
6666;DHT22;3369;49.906;8.598;2023-08-17T09:17:45;20.50;99.90
6666;DHT22;3369;49.906;8.598;2023-08-17T09:20:42;20.60;99.90
6666;DHT22;3369;49.906;8.598;2023-08-17T09:23:11;20.60;99.90
6666;DHT22;3369;49.906;8.598;2023-08-17T09:25:39;20.60;99.90
6666;DHT22;3369;49.906;8.598;2023-08-17T09:28:13;20.70;99.90
6666;DHT22;3369;49.906;8.598;2023-08-17T09:30:50;20.70;99.90
6666;DHT22;3369;49.906;8.598;2023-08-17T09:33:23;20.70;99.90
6666;DHT22;3369;49.906;8.598;2023-08-17T09:35:50;20.80;99.90
6666;DHT22;3369;49.906;8.598;2023-08-17T09:38:18;20.80;99.90
6666;DHT22;3369;49.906;8.598;2023-08-17T09:40:44;20.80;99.90
6666;DHT22;3369;49.906;8.598;2023-08-17T09:43:10;20.90;99.90
6666;DHT22;3369;49.906;8.598;2023-08-17T09:45:39;21.00;99.90
6666;DHT22;3369;49.906;8.598;2023-08-17T09:48:08;21.10;99.90
6666;DHT22;3369;49.906;8.598;2023-08-17T09:50:35;21.20;99.90
6666;DHT22;3369;49.906;8.598;2023-08-17T09:53:02;21.30;99.90
6666;DHT22;3369;49.906;8.598;2023-08-17T09:55:30;21.30;99.90
6666;DHT22;3369;49.906;8.598;2023-08-17T09:57:58;21.40;99.90
6666;DHT22;3369;49.906;8.598;2023-08-17T10:00:24;21.50;99.90
6666;DHT22;3369;49.906;8.598;2023-08-17T10:02:52;21.60;99.90
6666;DHT22;3369;49.906;8.598;2023-08-17T10:05:19;21.80;99.90
6666;DHT22;3369;49.906;8.598;2023-08-17T10:07:53;21.90;99.90
6666;DHT22;3369;49.906;8.598;2023-08-17T10:10:25;22.00;99.90
6666;DHT22;3369;49.906;8.598;2023-08-17T10:13:37;22.10;99.90
6666;DHT22;3369;49.906;8.598;2023-08-17T10:16:29;22.10;99.90
6666;DHT22;3369;49.906;8.598;2023-08-17T10:19:01;22.10;99.90
6666;DHT22;3369;49.906;8.598;2023-08-17T10:21:50;22.10;99.90
6666;DHT22;3369;49.906;8.598;2023-08-17T10:24:19;22.10;99.90
6666;DHT22;3369;49.906;8.598;2023-08-17T10:26:45;22.10;99.90
6666;DHT22;3369;49.906;8.598;2023-08-17T10:29:11;22.10;99.90
6666;DHT22;3369;49.906;8.598;2023-08-17T10:31:38;22.10;99.90
6666;DHT22;3369;49.906;8.598;2023-08-17T10:34:04;22.10;99.90
6666;DHT22;3369;49.906;8.598;2023-08-17T10:36:31;22.00;99.90
6666;DHT22;3369;49.906;8.598;2023-08-17T10:39:23;22.10;99.90
6666;DHT22;3369;49.906;8.598;2023-08-17T10:41:50;22.10;99.90
6666;DHT22;3369;49.906;8.598;2023-08-17T10:44:47;22.20;99.90
6666;DHT22;3369;49.906;8.598;2023-08-17T10:47:26;22.40;99.90
6666;DHT22;3369;49.906;8.598;2023-08-17T10:49:59;22.70;99.90
6666;DHT22;3369;49.906;8.598;2023-08-17T10:52:30;22.80;99.90
6666;DHT22;3369;49.906;8.598;2023-08-17T10:54:56;22.90;99.90
6666;DHT22;3369;49.906;8.598;2023-08-17T10:57:36;23.00;99.90
6666;DHT22;3369;49.906;8.598;2023-08-17T11:00:18;23.20;99.90
6666;DHT22;3369;49.906;8.598;2023-08-17T11:03:04;23.30;99.90
6666;DHT22;3369;49.906;8.598;2023-08-17T11:05:36;23.50;99.90
6666;DHT22;3369;49.906;8.598;2023-08-17T11:08:06;23.60;99.90
6666;DHT22;3369;49.906;8.598;2023-08-17T11:10:32;23.60;99.90
6666;DHT22;3369;49.906;8.598;2023-08-17T11:12:59;23.70;99.90
6666;DHT22;3369;49.906;8.598;2023-08-17T11:15:45;23.80;99.90
6666;DHT22;3369;49.906;8.598;2023-08-17T11:18:13;23.90;99.90
6666;DHT22;3369;49.906;8.598;2023-08-17T11:20:41;24.00;99.90
6666;DHT22;3369;49.906;8.598;2023-08-17T11:23:07;24.10;99.90
6666;DHT22;3369;49.906;8.598;2023-08-17T11:25:33;24.10;99.90
6666;DHT22;3369;49.906;8.598;2023-08-17T11:28:03;24.20;99.90
6666;DHT22;3369;49.906;8.598;2023-08-17T11:30:29;24.30;99.90
6666;DHT22;3369;49.906;8.598;2023-08-17T11:32:55;24.30;99.90
6666;DHT22;3369;49.906;8.598;2023-08-17T11:35:21;24.30;99.90
6666;DHT22;3369;49.906;8.598;2023-08-17T11:37:48;24.30;99.90
6666;DHT22;3369;49.906;8.598;2023-08-17T11:40:14;24.40;99.90
6666;DHT22;3369;49.906;8.598;2023-08-17T11:42:41;24.30;99.90
6666;DHT22;3369;49.906;8.598;2023-08-17T11:45:07;24.40;99.90
6666;DHT22;3369;49.906;8.598;2023-08-17T11:47:39;24.50;99.90
6666;DHT22;3369;49.906;8.598;2023-08-17T11:50:12;24.50;99.90
6666;DHT22;3369;49.906;8.598;2023-08-17T11:52:38;24.60;99.90
6666;DHT22;3369;49.906;8.598;2023-08-17T11:55:05;24.70;99.90
6666;DHT22;3369;49.906;8.598;2023-08-17T11:57:34;24.80;99.90
6666;DHT22;3369;49.906;8.598;2023-08-17T12:00:01;24.90;99.90
6666;DHT22;3369;49.906;8.598;2023-08-17T12:02:27;25.00;99.90
6666;DHT22;3369;49.906;8.598;2023-08-17T12:04:54;25.10;99.90
6666;DHT22;3369;49.906;8.598;2023-08-17T12:07:21;25.20;99.90
6666;DHT22;3369;49.906;8.598;2023-08-17T12:09:49;25.20;99.90
6666;DHT22;3369;49.906;8.598;2023-08-17T12:12:19;25.30;99.90
6666;DHT22;3369;49.906;8.598;2023-08-17T12:14:46;25.30;99.90
6666;DHT22;3369;49.906;8.598;2023-08-17T12:17:19;25.20;99.90
6666;DHT22;3369;49.906;8.598;2023-08-17T12:19:49;25.10;99.90
6666;DHT22;3369;49.906;8.598;2023-08-17T12:22:17;25.10;99.90
6666;DHT22;3369;49.906;8.598;2023-08-17T12:24:43;25.10;99.90
6666;DHT22;3369;49.906;8.598;2023-08-17T12:27:09;25.20;99.90
6666;DHT22;3369;49.906;8.598;2023-08-17T12:29:46;25.30;99.90
6666;DHT22;3369;49.906;8.598;2023-08-17T12:32:14;25.40;99.90
6666;DHT22;3369;49.906;8.598;2023-08-17T12:34:39;25.40;99.90
6666;DHT22;3369;49.906;8.598;2023-08-17T12:37:05;25.40;99.90
6666;DHT22;3369;49.906;8.598;2023-08-17T12:39:33;25.40;99.90
6666;DHT22;3369;49.906;8.598;2023-08-17T12:41:58;25.40;99.90
6666;DHT22;3369;49.906;8.598;2023-08-17T12:44:24;25.30;99.90
6666;DHT22;3369;49.906;8.598;2023-08-17T12:46:50;25.40;99.90
6666;DHT22;3369;49.906;8.598;2023-08-17T12:49:15;25.40;99.90
6666;DHT22;3369;49.906;8.598;2023-08-17T12:51:41;25.50;99.90
6666;DHT22;3369;49.906;8.598;2023-08-17T12:54:07;25.60;99.90
6666;DHT22;3369;49.906;8.598;2023-08-17T12:56:33;25.70;99.90
6666;DHT22;3369;49.906;8.598;2023-08-17T12:58:59;25.90;99.90
6666;DHT22;3369;49.906;8.598;2023-08-17T13:01:24;26.00;99.90
6666;DHT22;3369;49.906;8.598;2023-08-17T13:03:50;26.20;99.90
6666;DHT22;3369;49.906;8.598;2023-08-17T13:06:15;26.30;99.90
6666;DHT22;3369;49.906;8.598;2023-08-17T13:08:41;26.40;99.90
6666;DHT22;3369;49.906;8.598;2023-08-17T13:11:06;26.40;99.90
6666;DHT22;3369;49.906;8.598;2023-08-17T13:13:32;26.30;99.90
6666;DHT22;3369;49.906;8.598;2023-08-17T13:15:58;26.20;99.90
6666;DHT22;3369;49.906;8.598;2023-08-17T13:18:25;26.00;99.90
6666;DHT22;3369;49.906;8.598;2023-08-17T13:20:50;25.90;99.90
6666;DHT22;3369;49.906;8.598;2023-08-17T13:23:16;25.80;99.90
6666;DHT22;3369;49.906;8.598;2023-08-17T13:25:41;25.70;99.90
6666;DHT22;3369;49.906;8.598;2023-08-17T13:28:07;25.60;99.90
6666;DHT22;3369;49.906;8.598;2023-08-17T13:30:33;25.60;99.90
6666;DHT22;3369;49.906;8.598;2023-08-17T13:32:59;25.60;99.90
6666;DHT22;3369;49.906;8.598;2023-08-17T13:35:24;25.60;99.90
6666;DHT22;3369;49.906;8.598;2023-08-17T13:37:53;25.60;99.90
6666;DHT22;3369;49.906;8.598;2023-08-17T13:40:19;25.70;99.90
6666;DHT22;3369;49.906;8.598;2023-08-17T13:42:45;25.70;99.90
6666;DHT22;3369;49.906;8.598;2023-08-17T13:45:11;25.70;99.90
6666;DHT22;3369;49.906;8.598;2023-08-17T13:47:36;25.70;99.90
6666;DHT22;3369;49.906;8.598;2023-08-17T13:50:02;25.70;99.90
6666;DHT22;3369;49.906;8.598;2023-08-17T13:52:29;25.70;99.90
6666;DHT22;3369;49.906;8.598;2023-08-17T13:54:54;25.70;99.90
6666;DHT22;3369;49.906;8.598;2023-08-17T13:57:20;25.80;99.90
6666;DHT22;3369;49.906;8.598;2023-08-17T13:59:46;25.90;99.90
6666;DHT22;3369;49.906;8.598;2023-08-17T14:02:11;26.10;99.90
6666;DHT22;3369;49.906;8.598;2023-08-17T14:04:37;26.20;99.90
6666;DHT22;3369;49.906;8.598;2023-08-17T14:07:02;26.20;99.90
6666;DHT22;3369;49.906;8.598;2023-08-17T14:09:29;26.20;99.90
6666;DHT22;3369;49.906;8.598;2023-08-17T14:11:54;26.20;99.90
6666;DHT22;3369;49.906;8.598;2023-08-17T14:14:20;26.30;99.90
6666;DHT22;3369;49.906;8.598;2023-08-17T14:16:46;26.40;99.90
6666;DHT22;3369;49.906;8.598;2023-08-17T14:19:11;26.50;99.90
6666;DHT22;3369;49.906;8.598;2023-08-17T14:21:37;26.60;99.90
6666;DHT22;3369;49.906;8.598;2023-08-17T14:24:02;26.70;99.90
6666;DHT22;3369;49.906;8.598;2023-08-17T14:26:28;26.70;99.90
6666;DHT22;3369;49.906;8.598;2023-08-17T14:28:54;26.80;99.90
6666;DHT22;3369;49.906;8.598;2023-08-17T14:31:19;26.80;99.90
6666;DHT22;3369;49.906;8.598;2023-08-17T14:33:47;26.80;99.90
6666;DHT22;3369;49.906;8.598;2023-08-17T14:36:13;26.90;99.90
6666;DHT22;3369;49.906;8.598;2023-08-17T14:38:39;26.90;99.90
6666;DHT22;3369;49.906;8.598;2023-08-17T14:41:04;26.90;99.90
6666;DHT22;3369;49.906;8.598;2023-08-17T14:43:32;26.90;99.90
6666;DHT22;3369;49.906;8.598;2023-08-17T14:45:57;26.80;99.90
6666;DHT22;3369;49.906;8.598;2023-08-17T14:48:23;26.80;99.90
6666;DHT22;3369;49.906;8.598;2023-08-17T14:50:49;26.80;99.90
6666;DHT22;3369;49.906;8.598;2023-08-17T14:53:14;26.70;99.90
6666;DHT22;3369;49.906;8.598;2023-08-17T14:55:41;26.70;99.90
6666;DHT22;3369;49.906;8.598;2023-08-17T14:58:07;26.60;99.90
6666;DHT22;3369;49.906;8.598;2023-08-17T15:00:33;26.50;99.90
6666;DHT22;3369;49.906;8.598;2023-08-17T15:02:58;26.50;99.90
6666;DHT22;3369;49.906;8.598;2023-08-17T15:05:24;26.40;99.90
6666;DHT22;3369;49.906;8.598;2023-08-17T15:07:50;26.30;99.90
6666;DHT22;3369;49.906;8.598;2023-08-17T15:10:16;26.20;99.90
6666;DHT22;3369;49.906;8.598;2023-08-17T15:12:42;26.10;99.90
6666;DHT22;3369;49.906;8.598;2023-08-17T15:15:08;26.10;99.90
6666;DHT22;3369;49.906;8.598;2023-08-17T15:17:34;26.00;99.90
6666;DHT22;3369;49.906;8.598;2023-08-17T15:20:00;26.00;99.90
6666;DHT22;3369;49.906;8.598;2023-08-17T15:22:26;26.00;99.90
6666;DHT22;3369;49.906;8.598;2023-08-17T15:24:52;26.00;99.90
6666;DHT22;3369;49.906;8.598;2023-08-17T15:27:17;26.00;99.90
6666;DHT22;3369;49.906;8.598;2023-08-17T15:29:43;26.00;99.90
6666;DHT22;3369;49.906;8.598;2023-08-17T15:32:09;26.00;99.90
6666;DHT22;3369;49.906;8.598;2023-08-17T15:34:35;26.00;99.90
6666;DHT22;3369;49.906;8.598;2023-08-17T15:37:01;26.00;99.90
6666;DHT22;3369;49.906;8.598;2023-08-17T15:39:26;26.00;99.90
6666;DHT22;3369;49.906;8.598;2023-08-17T15:41:52;26.10;99.90
6666;DHT22;3369;49.906;8.598;2023-08-17T15:44:19;26.10;99.90
6666;DHT22;3369;49.906;8.598;2023-08-17T15:46:44;26.10;99.90
6666;DHT22;3369;49.906;8.598;2023-08-17T15:49:10;26.10;99.90
6666;DHT22;3369;49.906;8.598;2023-08-17T15:51:37;26.10;99.90
6666;DHT22;3369;49.906;8.598;2023-08-17T15:54:03;26.10;99.90
6666;DHT22;3369;49.906;8.598;2023-08-17T15:56:29;26.10;99.90
6666;DHT22;3369;49.906;8.598;2023-08-17T15:58:55;26.00;99.90
6666;DHT22;3369;49.906;8.598;2023-08-17T16:01:20;26.00;99.90
6666;DHT22;3369;49.906;8.598;2023-08-17T16:03:47;26.00;99.90